Time;durP1;ratioP1;P1;durP2;ratioP2;P2;SDS_P1;SDS_P2;PMS_P1;PMS_P2;Temp;Humidity;BMP_temperature;BMP_pressure;BME280_temperature;BME280_humidity;BME280_pressure;Samples;Min_cycle;Max_cycle;Signal;HPM_P1;HPM_P2
2023/06/19 00:00:39;;;;;;;8.38;6.03;;;;;;;21.09;63.36;100746.00;5000404;28;20162;-51
2023/06/19 00:03:05;;;;;;;7.10;6.10;;;;;;;21.09;63.43;100746.00;4994879;28;20472;-52
2023/06/19 00:05:30;;;;;;;9.93;6.13;;;;;;;21.05;63.45;100749.06;4999592;28;20030;-51
2023/06/19 00:07:56;;;;;;;8.73;6.22;;;;;;;21.00;63.68;100748.81;5003237;28;20399;-53
2023/06/19 00:10:21;;;;;;;6.90;6.20;;;;;;;20.96;64.32;100747.50;4999476;28;20026;-53
2023/06/19 00:12:46;;;;;;;7.32;6.63;;;;;;;20.93;64.07;100755.97;5002206;28;20052;-51
2023/06/19 00:15:12;;;;;;;6.20;5.60;;;;;;;20.92;63.57;100753.44;5001450;28;20068;-51
2023/06/19 00:17:38;;;;;;;8.02;6.47;;;;;;;20.89;64.32;100762.78;4999080;28;20050;-52
2023/06/19 00:20:05;;;;;;;10.43;6.63;;;;;;;20.86;64.74;100771.25;5002224;28;20435;-50
2023/06/19 00:22:31;;;;;;;7.35;6.53;;;;;;;20.81;64.79;100769.09;5003999;28;20030;-51
2023/06/19 00:24:56;;;;;;;7.00;5.97;;;;;;;20.81;64.70;100779.06;4991664;28;20474;-52
2023/06/19 00:27:22;;;;;;;6.90;6.20;;;;;;;20.77;64.74;100775.91;4998270;28;20053;-52
2023/06/19 00:29:47;;;;;;;6.25;5.65;;;;;;;20.74;65.20;100776.28;4997874;28;20339;-50
2023/06/19 00:32:12;;;;;;;7.80;6.40;;;;;;;20.67;64.71;100784.28;4998898;28;20097;-51
2023/06/19 00:34:37;;;;;;;8.20;6.03;;;;;;;20.64;64.78;100787.34;5001167;28;20331;-50
2023/06/19 00:37:03;;;;;;;6.57;5.97;;;;;;;20.55;65.83;100788.44;4995785;28;20328;-51
2023/06/19 00:39:29;;;;;;;6.65;5.97;;;;;;;20.56;65.14;100789.28;5000605;28;20060;-50
2023/06/19 00:41:57;;;;;;;6.80;6.10;;;;;;;20.50;66.27;100790.81;4997512;28;20026;-51
2023/06/19 00:44:22;;;;;;;9.48;6.15;;;;;;;20.45;66.35;100788.72;4999373;28;20027;-51
2023/06/19 00:46:53;;;;;;;8.77;6.05;;;;;;;20.41;66.11;100808.97;5000066;28;20077;-50
2023/06/19 00:49:18;;;;;;;8.32;5.75;;;;;;;20.33;66.29;100799.09;4994885;28;20034;-51
2023/06/19 00:51:44;;;;;;;6.82;5.93;;;;;;;20.30;66.64;100801.31;5003668;28;20486;-50
2023/06/19 00:54:09;;;;;;;6.37;5.70;;;;;;;20.26;67.02;100805.41;5004190;28;20037;-50
2023/06/19 00:56:37;;;;;;;6.40;5.75;;;;;;;20.21;66.91;100802.41;4998556;28;20287;-52
2023/06/19 00:59:07;;;;;;;8.17;5.67;;;;;;;20.17;67.98;100815.44;4997227;28;20026;-51
2023/06/19 01:01:32;;;;;;;6.00;5.40;;;;;;;20.14;67.73;100813.91;4998733;28;20034;-51
2023/06/19 01:03:57;;;;;;;6.10;5.22;;;;;;;20.13;68.47;100811.41;4998565;28;20164;-51
2023/06/19 01:06:37;;;;;;;8.20;5.77;;;;;;;20.08;68.23;100813.81;4995755;28;20552;-51
2023/06/19 01:09:07;;;;;;;5.35;4.85;;;;;;;20.06;68.64;100822.06;4994448;28;20344;-51
2023/06/19 01:11:56;;;;;;;5.63;5.07;;;;;;;20.02;69.03;100815.38;5000181;28;20032;-50
2023/06/19 01:14:26;;;;;;;6.35;5.05;;;;;;;20.02;68.15;100820.78;4995941;28;20049;-50
2023/06/19 01:16:51;;;;;;;6.15;5.55;;;;;;;19.95;69.02;100828.75;5000120;28;20034;-50
2023/06/19 01:19:21;;;;;;;6.05;5.03;;;;;;;19.94;69.64;100829.75;4998749;28;20458;-51
2023/06/19 01:21:48;;;;;;;5.18;4.28;;;;;;;19.91;70.58;100818.50;4995336;28;20513;-54
2023/06/19 01:24:14;;;;;;;5.68;4.43;;;;;;;19.87;70.89;100820.72;4997864;28;20022;-53
2023/06/19 01:26:40;;;;;;;5.03;4.53;;;;;;;19.85;71.40;100824.59;4998844;28;20036;-51
2023/06/19 01:29:05;;;;;;;5.90;4.60;;;;;;;19.80;71.64;100821.59;4996103;28;20484;-50
2023/06/19 01:31:41;;;;;;;5.22;4.22;;;;;;;19.82;71.46;100828.50;4998137;28;20056;-51
2023/06/19 01:34:08;;;;;;;5.93;4.38;;;;;;;19.79;70.99;100826.16;4994368;28;20030;-54
2023/06/19 01:36:35;;;;;;;5.65;4.78;;;;;;;19.75;71.97;100825.69;4998737;28;20435;-51
2023/06/19 01:39:01;;;;;;;6.18;4.70;;;;;;;19.72;71.98;100831.38;4996642;28;20037;-51
2023/06/19 01:41:27;;;;;;;6.22;4.68;;;;;;;19.69;72.57;100833.59;5000416;28;20035;-51
2023/06/19 01:43:53;;;;;;;6.50;4.45;;;;;;;19.64;73.63;100831.44;4999225;28;20022;-51
2023/06/19 01:46:19;;;;;;;9.13;4.63;;;;;;;19.63;72.98;100831.59;4997080;28;20133;-51
2023/06/19 01:48:44;;;;;;;5.35;4.43;;;;;;;19.59;73.62;100837.34;4999724;28;20061;-50
2023/06/19 01:51:11;;;;;;;5.30;4.47;;;;;;;19.56;74.01;100839.56;5003128;28;20075;-51
2023/06/19 01:53:36;;;;;;;7.20;4.28;;;;;;;19.56;73.87;100845.78;4997154;28;20034;-52
2023/06/19 01:56:02;;;;;;;5.30;4.40;;;;;;;19.53;74.26;100848.81;5002242;28;20079;-51
2023/06/19 01:58:27;;;;;;;4.55;3.90;;;;;;;19.49;75.08;100842.13;4999164;28;20034;-51
2023/06/19 02:00:53;;;;;;;4.33;3.93;;;;;;;19.46;75.63;100855.09;4999830;28;20041;-51
2023/06/19 02:03:18;;;;;;;5.00;4.00;;;;;;;19.44;76.00;100854.44;4998309;28;20379;-51
2023/06/19 02:05:43;;;;;;;5.72;4.20;;;;;;;19.41;76.05;100845.69;4997486;28;20026;-51
2023/06/19 02:08:09;;;;;;;4.43;3.92;;;;;;;19.37;76.24;100849.75;4998180;28;20045;-53
2023/06/19 02:10:34;;;;;;;5.28;3.63;;;;;;;19.37;77.17;100857.84;5002527;28;20031;-54
2023/06/19 02:13:00;;;;;;;4.07;3.47;;;;;;;19.36;77.48;100858.00;5000885;28;20027;-52
2023/06/19 02:15:25;;;;;;;3.80;3.30;;;;;;;19.35;77.89;100862.56;5002600;28;20499;-51
2023/06/19 02:17:54;;;;;;;3.72;3.20;;;;;;;19.33;78.45;100859.19;5001147;28;20491;-52
2023/06/19 02:20:20;;;;;;;3.50;3.20;;;;;;;19.32;78.59;100862.06;5004849;28;20498;-52
2023/06/19 02:22:46;;;;;;;6.95;3.35;;;;;;;19.30;78.75;100861.38;5002208;28;20030;-51
2023/06/19 02:25:11;;;;;;;4.53;2.75;;;;;;;19.28;78.73;100858.88;4998464;28;20046;-50
2023/06/19 02:27:36;;;;;;;4.93;3.35;;;;;;;19.28;78.97;100858.03;5006449;28;20022;-51
2023/06/19 02:30:03;;;;;;;4.68;3.20;;;;;;;19.23;79.16;100861.25;4985775;28;20026;-52
2023/06/19 02:32:28;;;;;;;3.85;3.40;;;;;;;19.22;80.29;100862.28;5000272;28;20526;-52
2023/06/19 02:34:53;;;;;;;3.75;3.00;;;;;;;19.19;80.65;100863.44;5002675;28;20065;-52
2023/06/19 02:37:18;;;;;;;2.97;2.63;;;;;;;19.18;80.82;100864.44;5002661;28;20022;-52
2023/06/19 02:39:44;;;;;;;6.07;2.87;;;;;;;19.16;80.89;100862.97;5002495;28;20109;-51
2023/06/19 02:42:09;;;;;;;2.83;2.63;;;;;;;19.16;80.34;100869.19;5001544;28;20273;-51
2023/06/19 02:44:34;;;;;;;4.18;2.67;;;;;;;19.12;81.26;100861.63;5001324;28;20281;-49
2023/06/19 02:47:00;;;;;;;3.03;2.72;;;;;;;19.09;81.07;100870.91;4998564;28;20042;-50
2023/06/19 02:49:25;;;;;;;9.38;2.63;;;;;;;19.09;80.75;100870.06;5002703;28;20034;-50
2023/06/19 02:51:50;;;;;;;4.18;2.78;;;;;;;19.04;82.11;100874.09;4998504;28;20045;-50
2023/06/19 02:54:15;;;;;;;3.60;2.60;;;;;;;19.02;82.28;100881.50;5003219;28;20030;-51
2023/06/19 02:56:41;;;;;;;3.90;3.10;;;;;;;18.97;83.11;100880.34;4999815;28;20289;-51
2023/06/19 02:59:06;;;;;;;3.50;3.15;;;;;;;18.96;83.09;100878.66;5001738;28;20380;-50
2023/06/19 03:01:31;;;;;;;2.75;2.45;;;;;;;18.94;83.15;100878.84;4999882;28;20023;-50
2023/06/19 03:03:57;;;;;;;5.80;3.10;;;;;;;18.92;83.32;100880.88;5004283;28;20361;-50
2023/06/19 03:06:22;;;;;;;5.13;3.22;;;;;;;18.93;82.79;100889.78;5001330;28;20038;-51
2023/06/19 03:08:47;;;;;;;3.28;2.97;;;;;;;18.89;83.06;100889.28;5004958;28;20068;-50
2023/06/19 03:11:13;;;;;;;3.83;2.75;;;;;;;18.87;83.65;100894.00;4997581;28;20546;-53
2023/06/19 03:13:51;;;;;;;3.08;2.67;;;;;;;18.88;83.52;100898.34;5002454;28;20049;-52
2023/06/19 03:16:16;;;;;;;3.65;3.15;;;;;;;18.87;83.13;100899.38;5002462;28;20026;-51
2023/06/19 03:18:44;;;;;;;4.68;3.05;;;;;;;18.81;84.54;100897.34;4999468;28;20443;-51
2023/06/19 03:21:10;;;;;;;4.00;3.10;;;;;;;18.82;84.69;100904.41;5005116;28;20029;-52
2023/06/19 03:23:35;;;;;;;4.32;3.25;;;;;;;18.77;84.78;100895.97;4998699;28;20026;-51
2023/06/19 03:26:01;;;;;;;3.67;3.25;;;;;;;18.77;84.72;100898.66;5005128;28;20033;-52
2023/06/19 03:28:26;;;;;;;4.50;3.20;;;;;;;18.74;85.38;100902.56;5000586;28;20037;-52
2023/06/19 03:30:51;;;;;;;4.15;3.67;;;;;;;18.75;85.16;100904.25;5002115;28;20289;-51
2023/06/19 03:33:16;;;;;;;5.90;4.10;;;;;;;18.68;86.01;100905.91;5001095;28;20026;-53
2023/06/19 03:35:43;;;;;;;4.70;3.97;;;;;;;18.66;85.77;100894.50;4998741;28;20034;-52
2023/06/19 03:38:08;;;;;;;5.47;3.63;;;;;;;18.63;86.40;100898.34;4999412;28;20344;-51
2023/06/19 03:40:33;;;;;;;5.75;3.70;;;;;;;18.61;86.67;100907.59;5001110;28;20022;-51
2023/06/19 03:42:58;;;;;;;6.07;3.60;;;;;;;18.61;87.01;100918.38;4998892;28;20048;-51
2023/06/19 03:45:24;;;;;;;6.13;4.40;;;;;;;18.60;87.83;100913.97;4998078;28;20022;-51
2023/06/19 03:47:49;;;;;;;6.20;4.10;;;;;;;18.60;87.53;100922.06;5001550;28;20277;-51
2023/06/19 03:50:14;;;;;;;5.25;4.05;;;;;;;18.60;87.74;100928.28;4998459;28;20778;-49
2023/06/19 03:52:39;;;;;;;5.38;4.03;;;;;;;18.65;87.50;100930.47;5000986;28;20049;-51
2023/06/19 03:55:05;;;;;;;5.13;4.07;;;;;;;18.65;87.93;100931.31;4999216;28;20037;-51
2023/06/19 03:57:30;;;;;;;4.28;3.88;;;;;;;18.65;88.56;100938.53;4997776;28;20325;-52
2023/06/19 03:59:56;;;;;;;4.80;3.88;;;;;;;18.68;88.92;100946.28;5003375;28;20023;-55
2023/06/19 04:02:22;;;;;;;4.70;4.15;;;;;;;18.72;88.38;100944.06;4999534;28;20142;-52
2023/06/19 04:04:47;;;;;;;6.55;4.35;;;;;;;18.72;89.44;100946.75;5001297;28;20076;-51
2023/06/19 04:07:13;;;;;;;6.95;4.43;;;;;;;18.75;89.72;100954.50;5004543;28;20030;-54
2023/06/19 04:09:38;;;;;;;5.40;4.10;;;;;;;18.74;89.79;100952.84;5002034;28;20057;-52
2023/06/19 04:12:04;;;;;;;4.35;3.95;;;;;;;18.76;89.81;100953.50;5000300;28;20026;-55
2023/06/19 04:14:29;;;;;;;4.55;4.03;;;;;;;18.78;89.76;100957.69;5001393;28;20064;-52
2023/06/19 04:16:54;;;;;;;6.93;3.97;;;;;;;18.81;89.74;100965.44;4999506;28;20052;-53
2023/06/19 04:19:20;;;;;;;5.22;3.97;;;;;;;18.83;89.52;100971.50;5002866;28;20124;-51
2023/06/19 04:21:45;;;;;;;5.35;4.22;;;;;;;18.87;88.93;100966.66;4998202;28;20080;-51
2023/06/19 04:24:10;;;;;;;7.73;4.00;;;;;;;18.88;90.22;100968.31;4997310;28;20018;-51
2023/06/19 04:26:39;;;;;;;9.40;4.28;;;;;;;18.90;90.38;100971.72;5001166;28;20841;-52
2023/06/19 04:29:06;;;;;;;7.53;3.88;;;;;;;18.90;90.92;100974.41;4995044;28;20049;-51
2023/06/19 04:31:32;;;;;;;6.80;4.75;;;;;;;18.92;90.53;100979.59;4998538;28;20097;-52
2023/06/19 04:33:57;;;;;;;6.82;4.50;;;;;;;18.94;90.67;100978.41;4998487;28;20046;-51
2023/06/19 04:36:22;;;;;;;9.35;4.57;;;;;;;18.97;90.60;100977.25;4999851;28;20057;-52
2023/06/19 04:38:48;;;;;;;4.60;4.20;;;;;;;18.99;90.73;100977.91;4997029;28;20487;-50
2023/06/19 04:41:13;;;;;;;6.82;4.63;;;;;;;18.99;91.04;100980.63;5003205;28;20479;-53
2023/06/19 04:43:41;;;;;;;6.30;5.00;;;;;;;19.03;90.80;100984.63;4997313;28;20077;-51
2023/06/19 04:46:06;;;;;;;8.07;4.43;;;;;;;19.06;90.47;100996.94;5000744;28;20026;-52
2023/06/19 04:48:32;;;;;;;9.05;4.57;;;;;;;19.06;91.76;100996.94;4996875;28;20038;-52
2023/06/19 04:50:57;;;;;;;6.63;4.70;;;;;;;19.10;91.14;100998.25;5001105;28;20045;-52
2023/06/19 04:53:22;;;;;;;5.28;4.78;;;;;;;19.14;91.30;100997.75;4998052;28;20038;-52
2023/06/19 04:55:49;;;;;;;6.40;4.53;;;;;;;19.18;90.47;100992.88;4999602;28;20026;-53
2023/06/19 04:58:15;;;;;;;11.65;5.25;;;;;;;19.20;90.46;100998.91;4996749;28;20034;-52
2023/06/19 05:00:40;;;;;;;5.03;4.40;;;;;;;19.21;91.28;100995.22;4999286;28;20030;-52
2023/06/19 05:03:05;;;;;;;9.23;4.97;;;;;;;19.23;91.67;101001.28;4996297;28;20037;-52
2023/06/19 05:05:30;;;;;;;5.40;4.80;;;;;;;19.27;90.54;100999.06;5000694;28;20030;-51
2023/06/19 05:07:56;;;;;;;7.28;4.95;;;;;;;19.29;90.34;100994.38;4996129;28;20033;-51
2023/06/19 05:10:21;;;;;;;5.05;4.55;;;;;;;19.33;90.52;101001.91;4999742;28;20022;-52
2023/06/19 05:12:46;;;;;;;5.88;4.80;;;;;;;19.37;90.16;101003.28;4996276;28;20040;-51
2023/06/19 05:15:12;;;;;;;5.63;4.88;;;;;;;19.39;90.41;101001.25;4998389;28;20030;-52
2023/06/19 05:17:38;;;;;;;5.37;4.60;;;;;;;19.40;90.70;101007.47;4994485;28;20472;-53
2023/06/19 05:20:06;;;;;;;7.80;5.35;;;;;;;19.41;89.98;101007.28;5000617;28;20292;-53
2023/06/19 05:22:33;;;;;;;6.93;4.90;;;;;;;19.50;89.91;101015.34;4996421;28;20039;-52
2023/06/19 05:24:59;;;;;;;7.70;5.05;;;;;;;19.51;90.83;101022.44;5000196;28;20128;-51
2023/06/19 05:27:24;;;;;;;6.70;5.15;;;;;;;19.52;90.03;101027.66;4995800;28;20676;-53
2023/06/19 05:29:49;;;;;;;7.70;5.53;;;;;;;19.54;90.07;101024.78;5000225;28;20073;-53
2023/06/19 05:32:15;;;;;;;8.48;5.68;;;;;;;19.56;90.21;101023.59;4997656;28;20342;-51
2023/06/19 05:34:40;;;;;;;7.22;5.32;;;;;;;19.57;89.71;101025.28;5003115;28;20023;-52
2023/06/19 05:37:05;;;;;;;9.07;5.33;;;;;;;19.63;88.62;101031.81;5002782;28;20384;-52
2023/06/19 05:39:30;;;;;;;6.97;5.40;;;;;;;19.64;90.00;101032.69;4998466;28;20277;-52
2023/06/19 05:41:56;;;;;;;6.75;5.55;;;;;;;19.67;88.88;101030.47;4997284;28;20053;-53
2023/06/19 05:44:21;;;;;;;6.15;4.90;;;;;;;19.69;89.29;101033.84;5003858;28;20087;-53
2023/06/19 05:46:47;;;;;;;5.70;5.10;;;;;;;19.75;88.44;101035.03;4998416;28;20034;-53
2023/06/19 05:49:12;;;;;;;7.15;5.05;;;;;;;19.80;88.10;101038.06;4999775;28;20077;-50
2023/06/19 05:51:37;;;;;;;6.95;5.47;;;;;;;19.85;87.21;101029.44;5004695;28;20318;-52
2023/06/19 05:54:03;;;;;;;9.63;6.10;;;;;;;19.87;87.12;101028.25;5002205;28;20041;-52
2023/06/19 05:56:36;;;;;;;5.88;5.30;;;;;;;19.99;87.19;101026.00;5003064;28;20030;-50
2023/06/19 05:59:01;;;;;;;8.32;5.50;;;;;;;20.17;85.77;101036.56;5000209;28;20037;-50
2023/06/19 06:01:29;;;;;;;7.50;5.97;;;;;;;20.36;85.44;101020.94;5003163;28;20030;-52
2023/06/19 06:03:56;;;;;;;7.95;5.65;;;;;;;20.53;83.65;101027.91;5001795;28;20026;-50
2023/06/19 06:06:28;;;;;;;6.57;5.43;;;;;;;20.62;81.33;101037.66;4995483;28;20670;-49
2023/06/19 06:08:54;;;;;;;7.05;6.32;;;;;;;20.69;80.24;101044.03;5000928;28;20052;-51
2023/06/19 06:11:20;;;;;;;7.40;6.68;;;;;;;20.81;79.34;101044.44;4998056;28;20034;-53
2023/06/19 06:13:45;;;;;;;6.90;6.20;;;;;;;20.92;78.93;101047.72;5000397;28;20026;-52
2023/06/19 06:16:11;;;;;;;8.50;6.70;;;;;;;21.11;77.57;101057.22;5003081;28;20027;-51
2023/06/19 06:18:36;;;;;;;7.13;6.43;;;;;;;21.27;76.52;101059.78;5000734;28;20472;-50
2023/06/19 06:21:01;;;;;;;8.70;6.90;;;;;;;21.42;76.59;101065.22;5001555;28;20484;-50
2023/06/19 06:23:27;;;;;;;9.70;7.55;;;;;;;21.56;74.19;101069.81;4999789;28;20030;-50
2023/06/19 06:25:52;;;;;;;7.77;6.80;;;;;;;21.86;74.19;101069.00;5003067;28;20038;-53
2023/06/19 06:28:17;;;;;;;7.50;6.70;;;;;;;21.94;72.29;101075.16;5001474;28;20280;-53
2023/06/19 06:30:43;;;;;;;9.20;7.53;;;;;;;22.07;71.02;101070.97;4999368;28;20480;-50
2023/06/19 06:33:08;;;;;;;9.20;7.07;;;;;;;22.15;70.80;101082.53;5000803;28;20391;-50
2023/06/19 06:35:35;;;;;;;7.95;7.15;;;;;;;22.41;69.58;101083.06;5002434;28;20112;-50
2023/06/19 06:38:01;;;;;;;7.50;6.80;;;;;;;22.64;70.90;101080.22;5002788;28;20450;-50
2023/06/19 06:40:27;;;;;;;8.40;6.97;;;;;;;22.85;69.13;101087.53;4997683;28;20130;-51
2023/06/19 06:42:53;;;;;;;7.20;6.40;;;;;;;23.00;66.78;101092.84;5002915;28;20066;-51
2023/06/19 06:45:18;;;;;;;7.50;6.75;;;;;;;23.05;65.22;101095.84;4996332;28;20467;-50
2023/06/19 06:47:43;;;;;;;7.18;6.47;;;;;;;22.98;66.25;101097.63;4992596;28;20085;-51
2023/06/19 06:50:09;;;;;;;6.95;6.32;;;;;;;22.94;66.23;101096.38;5002485;28;20014;-50
2023/06/19 06:52:35;;;;;;;7.25;6.63;;;;;;;22.96;65.60;101105.94;4999807;28;20554;-51
2023/06/19 06:55:00;;;;;;;7.75;6.60;;;;;;;23.01;64.85;101106.22;5001617;28;20384;-51
2023/06/19 06:57:25;;;;;;;7.70;6.90;;;;;;;23.03;65.41;101108.72;4999458;28;20034;-53
2023/06/19 06:59:51;;;;;;;10.75;7.07;;;;;;;22.97;64.65;101098.69;4993563;28;20305;-50
2023/06/19 07:02:16;;;;;;;8.07;7.28;;;;;;;22.98;64.42;101108.47;5002512;28;20120;-50
2023/06/19 07:04:41;;;;;;;12.27;7.10;;;;;;;23.00;64.21;101111.81;5000452;28;20033;-52
2023/06/19 07:07:08;;;;;;;9.07;7.33;;;;;;;23.04;63.74;101113.97;4998900;28;20113;-53
2023/06/19 07:09:33;;;;;;;11.15;7.53;;;;;;;23.23;63.15;101119.78;4984281;28;20294;-51
2023/06/19 07:11:59;;;;;;;9.52;7.55;;;;;;;23.43;62.61;101120.81;4991841;28;20092;-53
2023/06/19 07:14:24;;;;;;;7.82;7.00;;;;;;;23.61;61.72;101130.31;5003964;28;20042;-53
2023/06/19 07:16:50;;;;;;;8.57;7.43;;;;;;;23.72;60.58;101131.69;4999299;28;20035;-56
2023/06/19 07:19:15;;;;;;;7.78;7.05;;;;;;;23.71;60.66;101138.13;5000089;28;20042;-54
2023/06/19 07:21:41;;;;;;;8.30;7.47;;;;;;;23.89;60.38;101137.66;4999060;28;20031;-50
2023/06/19 07:24:07;;;;;;;7.70;7.00;;;;;;;24.06;59.42;101138.19;5001374;28;20038;-52
2023/06/19 07:26:32;;;;;;;8.60;6.93;;;;;;;24.11;59.92;101138.41;4999005;28;20109;-52
2023/06/19 07:28:58;;;;;;;9.25;6.10;;;;;;;24.36;59.38;101136.91;4999853;28;20511;-54
2023/06/19 07:31:23;;;;;;;7.73;6.33;;;;;;;24.66;58.44;101143.91;4999273;28;20039;-51
2023/06/19 07:33:48;;;;;;;6.50;5.80;;;;;;;24.81;58.13;101139.16;5000391;28;20444;-51
2023/06/19 07:36:15;;;;;;;8.23;6.22;;;;;;;24.98;57.02;101141.50;4995332;28;20104;-54
2023/06/19 07:38:44;;;;;;;7.18;6.25;;;;;;;25.14;55.93;101148.44;4991541;28;20034;-52
2023/06/19 07:41:10;;;;;;;11.07;6.60;;;;;;;25.19;55.21;101151.38;4994267;28;20503;-51
2023/06/19 07:43:37;;;;;;;7.93;6.35;;;;;;;24.98;55.26;101164.09;4990467;28;20019;-53
2023/06/19 07:46:02;;;;;;;6.60;5.90;;;;;;;25.05;56.88;101143.19;5003911;28;20124;-56
2023/06/19 07:48:27;;;;;;;7.93;5.47;;;;;;;25.08;55.86;101142.78;4997469;28;20073;-52
2023/06/19 07:50:53;;;;;;;7.80;5.73;;;;;;;25.42;55.38;101140.13;5000286;28;20033;-55
2023/06/19 07:53:19;;;;;;;8.07;5.70;;;;;;;25.64;55.73;101144.28;5002307;28;20879;-54
2023/06/19 07:55:44;;;;;;;8.10;5.28;;;;;;;25.66;54.82;101144.94;4996807;28;20026;-52
2023/06/19 07:58:09;;;;;;;8.80;5.13;;;;;;;25.60;54.45;101148.50;4998298;28;20058;-54
2023/06/19 08:00:35;;;;;;;7.50;5.77;;;;;;;25.58;53.78;101145.16;4995363;28;20297;-53
2023/06/19 08:03:01;;;;;;;6.30;5.57;;;;;;;25.74;53.52;101149.31;5001023;28;20285;-54
2023/06/19 08:05:26;;;;;;;6.28;5.35;;;;;;;25.91;53.32;101146.16;5000903;28;20044;-55
2023/06/19 08:07:51;;;;;;;10.82;6.10;;;;;;;26.11;52.32;101151.59;4999889;28;20029;-54
2023/06/19 08:10:17;;;;;;;9.35;5.28;;;;;;;26.31;52.31;101155.09;4999350;28;20030;-55
2023/06/19 08:12:43;;;;;;;6.55;5.88;;;;;;;26.35;50.30;101153.63;4997496;28;20042;-54
2023/06/19 08:15:10;;;;;;;6.28;5.50;;;;;;;26.48;50.46;101158.19;4999222;28;20056;-52
2023/06/19 08:17:35;;;;;;;5.55;5.10;;;;;;;26.74;49.41;101162.69;5001558;28;20104;-52
2023/06/19 08:20:02;;;;;;;7.38;4.70;;;;;;;27.21;51.06;101153.41;5001937;28;20490;-50
2023/06/19 08:22:27;;;;;;;8.60;5.20;;;;;;;27.44;48.11;101147.38;4998432;28;20093;-50
2023/06/19 08:24:52;;;;;;;9.17;5.33;;;;;;;27.56;47.51;101145.59;5003683;28;20042;-51
2023/06/19 08:27:17;;;;;;;8.17;5.27;;;;;;;27.57;47.44;101143.72;5000885;28;20662;-50
2023/06/19 08:29:43;;;;;;;7.95;5.72;;;;;;;27.47;46.91;101146.94;5001895;28;20344;-50
2023/06/19 08:32:09;;;;;;;7.47;5.40;;;;;;;27.67;46.35;101155.78;4996618;28;20065;-52
2023/06/19 08:34:34;;;;;;;8.90;4.28;;;;;;;27.85;47.28;101154.16;5000998;28;20030;-53
2023/06/19 08:37:00;;;;;;;7.57;5.50;;;;;;;27.86;46.18;101164.84;5000494;28;20038;-51
2023/06/19 08:39:25;;;;;;;7.53;5.20;;;;;;;27.85;45.47;101170.53;5000915;28;20026;-50
2023/06/19 08:41:53;;;;;;;10.18;5.70;;;;;;;27.35;46.60;101174.09;4999726;28;20311;-51
2023/06/19 08:44:18;;;;;;;7.20;5.53;;;;;;;27.49;45.65;101175.66;5000695;28;20031;-50
2023/06/19 08:46:43;;;;;;;7.88;6.35;;;;;;;27.18;47.11;101176.50;5000094;28;20018;-51
2023/06/19 08:49:10;;;;;;;6.33;5.67;;;;;;;27.18;48.12;101178.38;5003578;28;20026;-53
2023/06/19 08:51:36;;;;;;;6.95;5.20;;;;;;;27.36;47.33;101177.66;5000531;28;20380;-50
2023/06/19 08:54:05;;;;;;;8.18;5.65;;;;;;;27.31;47.62;101183.78;5000677;28;20491;-52
2023/06/19 08:56:37;;;;;;;7.40;5.70;;;;;;;27.38;47.14;101189.19;5001268;28;20462;-52
2023/06/19 08:59:13;;;;;;;7.07;5.40;;;;;;;27.40;48.11;101193.38;4997481;28;20046;-55
2023/06/19 09:01:39;;;;;;;6.00;5.40;;;;;;;27.36;47.46;101194.84;4995652;28;20027;-53
2023/06/19 09:04:13;;;;;;;7.57;5.70;;;;;;;27.41;48.17;101192.31;4995299;28;20030;-52
2023/06/19 09:06:52;;;;;;;10.30;6.28;;;;;;;27.23;47.59;101197.63;4995819;28;20044;-53
2023/06/19 09:09:20;;;;;;;7.28;5.97;;;;;;;27.05;46.99;101199.22;4996585;28;20030;-54
2023/06/19 09:12:07;;;;;;;10.32;6.43;;;;;;;27.29;48.13;101204.97;4992106;28;20369;-53
2023/06/19 09:14:39;;;;;;;8.27;6.07;;;;;;;27.38;46.42;101200.94;5002443;28;20022;-55
2023/06/19 09:17:07;;;;;;;10.95;6.45;;;;;;;27.61;45.33;101202.22;4997616;28;20032;-52
2023/06/19 09:19:36;;;;;;;7.97;5.78;;;;;;;27.98;46.61;101195.00;4998343;28;20080;-50
2023/06/19 09:22:02;;;;;;;8.10;5.43;;;;;;;28.56;45.38;101207.44;4999517;28;20029;-52
2023/06/19 09:24:36;;;;;;;7.85;5.90;;;;;;;29.03;44.44;101215.03;5000388;28;20456;-52
2023/06/19 09:27:17;;;;;;;9.48;5.53;;;;;;;29.23;43.07;101217.53;4994635;28;20026;-50
2023/06/19 09:29:45;;;;;;;8.43;5.43;;;;;;;29.55;40.81;101214.50;5002693;28;20079;-53
2023/06/19 09:32:21;;;;;;;8.50;5.25;;;;;;;29.74;42.05;101215.22;4995345;28;20050;-56
2023/06/19 09:34:49;;;;;;;7.15;5.25;;;;;;;30.02;40.34;101211.81;4998913;28;20068;-54
2023/06/19 09:37:15;;;;;;;7.15;5.57;;;;;;;30.42;39.47;101218.50;5000227;28;20049;-55
2023/06/19 09:39:41;;;;;;;7.47;6.10;;;;;;;30.43;38.78;101218.25;4995002;28;20511;-53
2023/06/19 09:42:08;;;;;;;5.97;5.20;;;;;;;30.59;38.17;101218.56;4997773;28;20538;-50
2023/06/19 09:44:40;;;;;;;9.57;6.40;;;;;;;30.53;38.48;101227.78;4995171;28;20066;-51
2023/06/19 09:47:12;;;;;;;13.15;6.00;;;;;;;30.39;38.00;101225.31;4998532;28;20542;-54
2023/06/19 09:49:39;;;;;;;8.52;5.32;;;;;;;30.70;37.88;101230.59;4997400;28;20025;-52
2023/06/19 09:52:05;;;;;;;12.00;5.97;;;;;;;30.90;37.01;101219.19;5002955;28;20030;-50
2023/06/19 09:54:31;;;;;;;9.40;5.90;;;;;;;30.94;35.90;101214.88;4998346;28;20495;-54
2023/06/19 09:56:59;;;;;;;10.52;5.65;;;;;;;30.84;36.35;101212.75;4995684;28;20022;-52
2023/06/19 09:59:25;;;;;;;7.20;5.87;;;;;;;30.92;37.48;101211.56;4997977;28;20392;-54
2023/06/19 10:01:51;;;;;;;8.40;5.57;;;;;;;30.77;37.68;101218.41;5001312;28;20331;-55
2023/06/19 10:04:17;;;;;;;7.35;5.97;;;;;;;30.82;37.59;101217.66;4996458;28;20080;-57
2023/06/19 10:06:47;;;;;;;6.50;5.63;;;;;;;30.84;36.81;101228.41;5001738;28;20030;-52
2023/06/19 10:09:15;;;;;;;8.70;6.05;;;;;;;30.93;36.27;101224.19;4997958;28;20049;-52
2023/06/19 10:11:51;;;;;;;7.20;5.47;;;;;;;31.11;36.62;101224.03;4990630;28;20502;-54
2023/06/19 10:14:18;;;;;;;8.50;5.95;;;;;;;31.10;36.32;101229.75;4996157;28;20431;-53
2023/06/19 10:16:44;;;;;;;7.03;5.60;;;;;;;31.22;35.83;101222.28;4991070;28;20487;-55
2023/06/19 10:19:16;;;;;;;10.23;5.80;;;;;;;31.24;37.67;101222.06;4996168;28;20092;-55
2023/06/19 10:21:47;;;;;;;7.53;5.85;;;;;;;31.29;36.44;101223.00;4997142;28;20042;-54
2023/06/19 10:24:19;;;;;;;7.82;5.50;;;;;;;31.37;36.62;101219.00;4998698;28;20026;-55
2023/06/19 10:26:57;;;;;;;7.40;5.40;;;;;;;31.49;36.62;101218.91;4991124;28;20434;-55
2023/06/19 10:29:22;;;;;;;6.28;5.43;;;;;;;31.39;35.81;101226.97;4997922;28;20471;-54
2023/06/19 10:31:47;;;;;;;7.80;5.83;;;;;;;31.47;35.72;101221.91;5004109;28;20042;-53
2023/06/19 10:34:13;;;;;;;6.87;4.97;;;;;;;31.48;35.83;101225.50;5003054;28;20305;-54
2023/06/19 10:36:38;;;;;;;7.13;5.32;;;;;;;31.45;34.99;101226.00;5000942;28;20653;-51
2023/06/19 10:39:04;;;;;;;7.43;5.35;;;;;;;31.21;34.00;101228.03;5006614;28;20045;-53
2023/06/19 10:41:31;;;;;;;6.85;5.03;;;;;;;31.07;34.87;101220.09;5002052;28;20033;-52
2023/06/19 10:43:58;;;;;;;7.35;5.15;;;;;;;30.80;34.63;101226.13;4997291;28;20035;-53
2023/06/19 10:46:24;;;;;;;6.20;5.43;;;;;;;30.55;35.48;101234.66;4999532;28;20045;-54
2023/06/19 10:48:51;;;;;;;6.72;5.18;;;;;;;30.47;35.17;101231.47;5000567;28;20136;-55
2023/06/19 10:51:19;;;;;;;6.72;4.95;;;;;;;30.50;35.37;101231.00;4996696;28;20069;-52
2023/06/19 10:53:44;;;;;;;;;;;;;;;30.95;37.11;101230.31;4995984;28;20038;-53
2023/06/19 10:56:10;;;;;;;5.53;4.80;;;;;;;30.08;35.79;101224.56;4999346;28;20359;-52
2023/06/19 10:58:35;;;;;;;5.87;5.00;;;;;;;30.12;36.67;101218.63;5000606;28;20045;-52
2023/06/19 11:01:00;;;;;;;7.80;5.03;;;;;;;30.07;37.26;101217.41;5000025;28;20369;-51
2023/06/19 11:03:26;;;;;;;7.53;5.43;;;;;;;30.04;37.43;101206.97;4997924;28;20031;-53
2023/06/19 11:05:51;;;;;;;6.38;5.25;;;;;;;30.19;36.68;101211.09;5000857;28;20037;-55
2023/06/19 11:08:19;;;;;;;6.32;5.50;;;;;;;30.44;36.26;101211.72;5004080;28;20080;-54
2023/06/19 11:10:44;;;;;;;7.38;5.35;;;;;;;30.63;36.60;101206.88;4998902;28;20025;-53
2023/06/19 11:13:18;;;;;;;6.13;5.18;;;;;;;30.77;36.26;101207.41;4994989;28;20040;-52
2023/06/19 11:15:44;;;;;;;8.65;5.68;;;;;;;31.00;35.40;101211.19;4999535;28;20033;-53
2023/06/19 11:18:09;;;;;;;5.82;5.25;;;;;;;31.34;34.39;101201.13;4999835;28;20034;-52
2023/06/19 11:20:44;;;;;;;12.95;6.43;;;;;;;31.49;34.92;101197.81;4970177;28;20030;-53